createdAt,value
2023-03-07T00:04:36.918Z,747.00
2023-03-07T00:09:36.223Z,737.00
2023-03-07T00:14:33.509Z,740.00
2023-03-07T00:19:33.767Z,685.00
2023-03-07T00:24:33.065Z,701.00
2023-03-07T00:29:31.355Z,686.00
2023-03-07T00:34:31.612Z,685.00
2023-03-07T00:39:30.895Z,636.00
2023-03-07T00:44:30.203Z,672.00
2023-03-07T00:49:28.509Z,673.00
2023-03-07T00:54:28.742Z,647.00
2023-03-07T00:59:26.938Z,619.00
2023-03-07T01:04:26.143Z,639.00
2023-03-07T01:09:27.369Z,672.00
2023-03-07T01:14:24.535Z,633.00
2023-03-07T01:19:23.723Z,668.00
2023-03-07T01:24:22.872Z,648.00
2023-03-07T01:29:22.068Z,647.00
2023-03-07T01:34:21.259Z,630.00
2023-03-07T01:39:20.431Z,649.00
2023-03-07T01:44:19.624Z,624.00
2023-03-07T01:49:18.787Z,617.00
2023-03-07T01:54:17.977Z,621.00
2023-03-07T01:59:21.193Z,583.00
2023-03-07T02:04:16.368Z,599.00
2023-03-07T02:09:15.575Z,600.00
2023-03-07T02:14:14.766Z,600.00
2023-03-07T02:19:15.949Z,608.00
2023-03-07T02:24:15.122Z,596.00
2023-03-07T02:29:13.317Z,584.00
2023-03-07T02:34:12.492Z,620.00
2023-03-07T02:39:10.650Z,620.00
2023-03-07T02:44:10.821Z,608.00
2023-03-07T02:49:09.098Z,614.00
2023-03-07T02:54:08.340Z,604.00
2023-03-07T02:59:08.572Z,599.00
2023-03-07T03:04:06.766Z,593.00
2023-03-07T03:09:06.936Z,604.00
2023-03-07T03:14:05.123Z,577.00
2023-03-07T03:19:06.340Z,594.00
2023-03-07T03:24:04.534Z,611.00
2023-03-07T03:29:03.737Z,586.00
2023-03-07T03:34:02.951Z,614.00
2023-03-07T03:39:01.122Z,602.00
2023-03-07T03:44:00.308Z,592.00
2023-03-07T03:49:00.508Z,595.00
2023-03-07T03:53:58.771Z,597.00
2023-03-07T03:58:57.963Z,594.00
2023-03-07T04:03:57.144Z,594.00
2023-03-07T04:08:56.333Z,597.00
2023-03-07T04:13:57.600Z,571.00
2023-03-07T04:18:54.776Z,574.00
2023-03-07T04:23:54.953Z,598.00
2023-03-07T04:28:54.149Z,598.00
2023-03-07T04:33:52.318Z,595.00
2023-03-07T04:38:51.695Z,593.00
2023-03-07T04:43:51.743Z,595.00
2023-03-07T04:48:51.909Z,589.00
2023-03-07T04:53:50.055Z,590.00
2023-03-07T04:58:49.236Z,573.00
2023-03-07T05:03:47.407Z,588.00
2023-03-07T05:08:47.611Z,595.00
2023-03-07T05:13:45.809Z,536.00
2023-03-07T05:18:44.983Z,583.00
2023-03-07T05:23:44.309Z,592.00
2023-03-07T05:28:43.463Z,553.00
2023-03-07T05:33:42.757Z,582.00
2023-03-07T05:38:41.921Z,585.00
2023-03-07T05:43:41.113Z,595.00
2023-03-07T05:48:40.283Z,605.00
2023-03-07T05:53:39.498Z,615.00
2023-03-07T05:58:40.682Z,588.00
2023-03-07T06:03:38.973Z,619.00
2023-03-07T06:08:38.172Z,604.00
2023-03-07T06:13:36.353Z,583.00
2023-03-07T06:18:35.561Z,606.00
2023-03-07T06:23:35.735Z,582.00
2023-03-07T06:28:33.947Z,594.00
2023-03-07T06:33:33.133Z,582.00
2023-03-07T06:38:32.331Z,589.00
2023-03-07T06:43:31.529Z,589.00
2023-03-07T06:48:30.720Z,569.00
2023-03-07T06:53:29.913Z,575.00
2023-03-07T06:58:30.103Z,608.00
2023-03-07T07:03:29.275Z,582.00
2023-03-07T07:08:27.488Z,563.00
2023-03-07T07:13:25.715Z,583.00
2023-03-07T07:18:25.908Z,610.00
2023-03-07T07:23:25.093Z,584.00
2023-03-07T07:28:26.260Z,600.00
2023-03-07T07:33:24.498Z,585.00
2023-03-07T07:38:22.655Z,621.00
2023-03-07T07:43:21.829Z,600.00
2023-03-07T07:48:22.011Z,612.00
2023-03-07T07:53:21.221Z,601.00
2023-03-07T07:58:20.381Z,583.00
2023-03-07T08:03:18.721Z,620.00
2023-03-07T08:08:17.849Z,630.00
2023-03-07T08:13:17.155Z,629.00
2023-03-07T08:18:17.496Z,593.00
2023-03-07T08:23:16.806Z,612.00
2023-03-07T08:28:15.120Z,622.00
2023-03-07T08:33:14.446Z,616.00
2023-03-07T08:38:13.774Z,611.00
2023-03-07T08:43:12.926Z,544.00
2023-03-07T08:48:12.064Z,651.00
2023-03-07T08:53:11.439Z,637.00
2023-03-07T08:58:11.574Z,615.00
2023-03-07T09:03:10.905Z,611.00
2023-03-07T09:08:08.065Z,634.00
2023-03-07T09:13:08.193Z,624.00
2023-03-07T09:18:08.281Z,620.00
2023-03-07T09:23:07.602Z,598.00
2023-03-07T09:28:05.929Z,608.00
2023-03-07T09:33:05.284Z,592.00
2023-03-07T09:38:04.400Z,602.00
2023-03-07T09:43:03.565Z,582.00
2023-03-07T09:48:02.696Z,651.00
2023-03-07T09:53:01.990Z,588.00
2023-03-07T09:58:03.306Z,581.00
2023-03-07T10:02:59.630Z,590.00
2023-03-07T10:07:59.783Z,603.00
2023-03-07T10:13:00.114Z,606.00
2023-03-07T10:17:58.423Z,590.00
2023-03-07T10:22:58.598Z,576.00
2023-03-07T10:27:58.917Z,579.00
2023-03-07T10:32:57.203Z,580.00
2023-03-07T10:37:55.494Z,571.00
2023-03-07T10:42:56.784Z,564.00
2023-03-07T10:47:54.108Z,585.00
2023-03-07T10:52:54.427Z,552.00
2023-03-07T10:57:55.443Z,572.00
2023-03-07T11:02:51.841Z,581.00
2023-03-07T11:07:51.171Z,576.00
2023-03-07T11:12:53.299Z,557.00
2023-03-07T11:17:49.616Z,579.00
2023-03-07T11:22:50.938Z,570.00
2023-03-07T11:27:48.233Z,584.00
2023-03-07T11:32:49.632Z,557.00
2023-03-07T11:37:46.858Z,583.00
2023-03-07T11:42:46.013Z,560.00
2023-03-07T11:47:45.175Z,571.00
2023-03-07T11:52:44.301Z,555.00
2023-03-07T11:57:44.642Z,582.00
2023-03-07T12:02:43.047Z,577.00
2023-03-07T12:07:42.255Z,569.00
2023-03-07T12:12:41.352Z,589.00
2023-03-07T12:17:41.715Z,570.00
2023-03-07T12:22:40.951Z,568.00
2023-03-07T12:27:39.082Z,543.00
2023-03-07T12:32:38.471Z,558.00
2023-03-07T12:37:37.541Z,573.00
2023-03-07T12:42:37.700Z,549.00
2023-03-07T12:47:35.827Z,555.00
2023-03-07T12:52:35.132Z,560.00
2023-03-07T12:57:34.445Z,565.00
2023-03-07T13:02:33.578Z,563.00
2023-03-07T13:07:32.747Z,564.00
2023-03-07T13:12:33.978Z,553.00
2023-03-07T13:17:30.122Z,567.00
2023-03-07T13:22:30.245Z,570.00
2023-03-07T13:27:31.619Z,561.00
2023-03-07T13:32:28.793Z,559.00
2023-03-07T13:37:27.906Z,552.00
2023-03-07T13:42:28.252Z,555.00
2023-03-07T13:47:27.398Z,551.00
2023-03-07T13:52:26.722Z,563.00
2023-03-07T13:57:27.511Z,554.00
2023-03-07T14:02:25.327Z,578.00
2023-03-07T14:07:23.620Z,555.00
2023-03-07T14:12:22.941Z,618.00
2023-03-07T14:17:23.083Z,597.00
2023-03-07T14:22:22.372Z,603.00
2023-03-07T14:27:42.779Z,600.00
2023-03-07T14:32:21.016Z,619.00
2023-03-07T14:37:20.154Z,614.00
2023-03-07T14:42:20.456Z,590.00
2023-03-07T14:47:17.764Z,598.00
2023-03-07T14:52:29.865Z,610.00
2023-03-07T14:57:17.295Z,592.00
2023-03-07T15:02:15.673Z,594.00
2023-03-07T15:07:15.835Z,615.00
2023-03-07T15:12:12.988Z,593.00
2023-03-07T15:17:12.189Z,589.00
2023-03-07T15:22:12.405Z,582.00
2023-03-07T15:27:11.536Z,590.00
2023-03-07T15:32:10.738Z,584.00
2023-03-07T15:37:10.887Z,588.00
2023-03-07T15:42:09.196Z,605.00
2023-03-07T15:47:08.426Z,587.00
2023-03-07T15:52:07.745Z,582.00
2023-03-07T15:57:06.713Z,573.00
2023-03-07T16:02:07.061Z,592.00
2023-03-07T16:07:06.173Z,605.00
2023-03-07T16:12:04.685Z,605.00
2023-03-07T16:17:03.898Z,607.00
2023-03-07T16:22:03.175Z,599.00
2023-03-07T16:27:02.140Z,595.00
2023-03-07T16:32:01.517Z,589.00
2023-03-07T16:37:00.870Z,593.00
2023-03-07T16:42:00.232Z,586.00
2023-03-07T16:47:00.124Z,595.00
2023-03-07T16:52:05.794Z,585.00
2023-03-07T16:56:57.720Z,581.00
2023-03-07T17:01:56.837Z,584.00
2023-03-07T17:07:04.340Z,596.00
2023-03-07T17:11:55.707Z,594.00
2023-03-07T17:16:55.499Z,597.00
2023-03-07T17:21:53.942Z,581.00
2023-03-07T17:26:53.437Z,586.00
2023-03-07T17:31:52.300Z,590.00
2023-03-07T17:36:51.616Z,583.00
2023-03-07T17:41:51.856Z,591.00
2023-03-07T17:46:50.030Z,579.00
2023-03-07T17:51:49.462Z,586.00
2023-03-07T17:56:48.822Z,581.00
2023-03-07T18:01:48.198Z,636.00
2023-03-07T18:06:47.137Z,632.00
2023-03-07T18:11:47.459Z,649.00
2023-03-07T18:16:45.849Z,643.00
2023-03-07T18:21:50.876Z,646.00
2023-03-07T18:26:45.194Z,629.00
2023-03-07T18:31:43.581Z,676.00
2023-03-07T18:36:43.834Z,719.00
2023-03-07T18:41:43.383Z,667.00
2023-03-07T18:46:42.001Z,714.00
2023-03-07T18:51:41.429Z,680.00
2023-03-07T18:56:40.733Z,759.00
2023-03-07T19:01:40.958Z,739.00
2023-03-07T19:06:39.160Z,859.00
2023-03-07T19:11:37.468Z,789.00
2023-03-07T19:16:37.729Z,746.00
2023-03-07T19:21:34.621Z,770.00
2023-03-07T19:26:37.187Z,719.00
2023-03-07T19:31:34.451Z,776.00
2023-03-07T19:36:33.740Z,770.00
2023-03-07T19:41:33.010Z,781.00
2023-03-07T19:46:34.248Z,881.00
2023-03-07T19:51:32.497Z,801.00
2023-03-07T19:56:31.667Z,863.00
2023-03-07T20:01:29.674Z,866.00
2023-03-07T20:06:28.118Z,853.00
2023-03-07T20:11:28.111Z,942.00
2023-03-07T20:16:28.751Z,794.00
2023-03-07T20:21:33.209Z,912.00
2023-03-07T20:26:27.931Z,891.00
2023-03-07T20:31:26.580Z,942.00
2023-03-07T20:36:24.702Z,944.00
2023-03-07T20:41:25.532Z,844.00
2023-03-07T20:46:24.886Z,954.00
2023-03-07T20:51:22.381Z,793.00
2023-03-07T20:56:23.421Z,878.00
2023-03-07T21:01:21.496Z,969.00
2023-03-07T21:06:20.043Z,842.00
2023-03-07T21:11:19.043Z,957.00
2023-03-07T21:16:18.362Z,870.00
2023-03-07T21:21:17.319Z,933.00
2023-03-07T21:26:16.630Z,788.00
2023-03-07T21:31:16.981Z,911.00
2023-03-07T21:36:15.871Z,825.00
2023-03-07T21:41:14.041Z,899.00
2023-03-07T21:46:13.642Z,918.00
2023-03-07T21:51:12.884Z,829.00
2023-03-07T21:56:13.006Z,886.00
2023-03-07T22:01:11.400Z,913.00
2023-03-07T22:06:10.246Z,964.00
2023-03-07T22:11:09.440Z,921.00
2023-03-07T22:16:09.690Z,953.00
2023-03-07T22:21:08.903Z,877.00
2023-03-07T22:26:08.095Z,878.00
2023-03-07T22:31:06.278Z,944.00
2023-03-07T22:36:05.489Z,929.00
2023-03-07T22:41:04.734Z,925.00
2023-03-07T22:46:06.018Z,971.00
2023-03-07T22:51:03.103Z,906.00
2023-03-07T22:56:03.292Z,893.00
2023-03-07T23:01:02.486Z,858.00
2023-03-07T23:06:00.674Z,837.00
2023-03-07T23:10:59.857Z,814.00
2023-03-07T23:15:59.105Z,783.00
2023-03-07T23:20:58.309Z,722.00
2023-03-07T23:25:58.490Z,788.00
2023-03-07T23:30:57.690Z,748.00
2023-03-07T23:35:56.957Z,745.00
2023-03-07T23:40:55.167Z,724.00
2023-03-07T23:45:54.411Z,828.00
2023-03-07T23:50:55.581Z,792.00
2023-03-07T23:55:52.752Z,726.00
